Aeroporto :
LOGIN :

Iscrizione | Disclaimer

   EN    FR    IT 

 










Sommario :    VFR   VFR Marginale   IFR   IFR Intensivo   IFR Molto Intensivo
Visibilità : 
Base nubi : 
>= 8 km
>= 3000ft
5 / 8 km
1000 / 3000 ft
1500m / 5 km
500 / 1000 ft
800 / 1500m
200 / 500 ft
< 800m
< 200 ft
Simboli :   Temporali  Nebbia  Neve Forte  Precipitazioni Forti  Vento > 20 kt
SIGMETs :   Varie  Temporali  Ghiacco  Turbolenza  Onda orograficha  Ceneri Vulcaniche






- Altitudine del aeroporto : 326 ft
- Codice IATA : LCG


LECO - A Coruna

ULTIMO METAR :
  • 242300Z AUTO VRB02KT CAVOK 15/12 Q1026

METARs OBSOLETI :
  • 242230Z AUTO VRB02KT CAVOK 15/13 Q1026
  • 242200Z AUTO VRB02KT CAVOK 16/13 Q1026
  • 242130Z AUTO VRB01KT CAVOK 17/12 Q1026
  • 242100Z AUTO 09003KT 050V140 CAVOK 18/13 Q1025
  • 242030Z AUTO 07005KT 040V100 CAVOK 18/13 Q1025

TAF TAF LECO
Valido dal 24 a 21 ore il 25 a 21 ore UTC


242000Z 2421/2521 04005KT CAVOK TX23/2514Z TN11/2506Z
BECMG 2508/2512 02015KT
TEMPO 2512/2521 02015G25KT



MetMap, La meteo Aeronautica in un colpo d'occhio ! - Copyright ORBIFLY Dicembre 2007 - Disclaimer

ORBIFLY MET'MAP TEAM :

Programmazione e sviluppo : Alexandra Zaïnal
Concezione : Baudouin d'Aumeries
Aiuto per la programmazione : Marc-Olivier Méhu
Supporto tecnico e logistico : Manuel Goepfert
Aiuto per la traduzione : Arnaldo La Scala

Contatto : metmap@orbifly.com




FONTI E CREDITI :

   NOAA